createdAt,value
2023-04-16T00:01:12.315Z,6.43
2023-04-16T00:03:39.265Z,6.65
2023-04-16T00:06:06.190Z,6.30
2023-04-16T00:08:32.723Z,6.13
2023-04-16T00:10:59.310Z,6.20
2023-04-16T00:13:25.911Z,5.90
2023-04-16T00:15:52.637Z,5.57
2023-04-16T00:18:19.269Z,5.78
2023-04-16T00:20:46.075Z,6.03
2023-04-16T00:23:12.768Z,6.55
2023-04-16T00:25:39.312Z,5.47
2023-04-16T00:28:05.863Z,5.55
2023-04-16T00:30:32.535Z,5.18
2023-04-16T00:32:59.152Z,5.95
2023-04-16T00:35:25.743Z,5.93
2023-04-16T00:37:52.353Z,5.47
2023-04-16T00:40:18.859Z,5.28
2023-04-16T00:42:45.753Z,5.03
2023-04-16T00:45:12.296Z,5.57
2023-04-16T00:47:39.199Z,5.47
2023-04-16T00:50:06.304Z,5.57
2023-04-16T00:52:32.941Z,5.47
2023-04-16T00:54:59.672Z,5.50
2023-04-16T00:57:26.281Z,5.78
2023-04-16T00:59:54.151Z,5.60
2023-04-16T01:02:20.972Z,5.17
2023-04-16T01:04:47.856Z,5.40
2023-04-16T01:07:14.590Z,5.45
2023-04-16T01:09:41.146Z,5.25
2023-04-16T01:12:07.750Z,5.35
2023-04-16T01:14:34.504Z,5.20
2023-04-16T01:17:01.118Z,5.63
2023-04-16T01:19:27.607Z,5.95
2023-04-16T01:21:54.112Z,5.60
2023-04-16T01:24:20.734Z,5.57
2023-04-16T01:26:47.278Z,5.80
2023-04-16T01:29:13.804Z,5.30
2023-04-16T01:31:40.537Z,5.72
2023-04-16T01:34:07.067Z,5.80
2023-04-16T01:36:33.772Z,5.72
2023-04-16T01:39:00.354Z,5.60
2023-04-16T01:41:26.891Z,4.85
2023-04-16T01:43:53.544Z,5.40
2023-04-16T01:46:27.300Z,5.22
2023-04-16T01:48:54.722Z,5.43
2023-04-16T01:51:22.138Z,5.20
2023-04-16T01:53:49.591Z,5.50
2023-04-16T01:56:16.364Z,5.18
2023-04-16T01:58:43.009Z,5.47
2023-04-16T02:01:09.882Z,5.50
2023-04-16T02:03:36.760Z,4.60
2023-04-16T02:06:03.591Z,5.15
2023-04-16T02:08:30.209Z,5.10
2023-04-16T02:10:57.629Z,4.50
2023-04-16T02:13:24.195Z,4.95
2023-04-16T02:15:51.169Z,5.33
2023-04-16T02:18:18.255Z,4.70
2023-04-16T02:20:46.270Z,5.50
2023-04-16T02:23:13.880Z,5.63
2023-04-16T02:25:45.538Z,5.90
2023-04-16T02:28:14.400Z,5.70
2023-04-16T02:30:41.586Z,4.95
2023-04-16T02:33:10.222Z,5.32
2023-04-16T02:35:38.507Z,5.32
2023-04-16T02:38:05.899Z,5.90
2023-04-16T02:40:32.581Z,5.50
2023-04-16T02:42:59.892Z,5.55
2023-04-16T02:45:26.460Z,6.00
2023-04-16T02:47:53.043Z,5.80
2023-04-16T02:50:19.735Z,5.45
2023-04-16T02:52:46.271Z,5.87
2023-04-16T02:55:12.903Z,5.55
2023-04-16T02:57:39.474Z,6.20
2023-04-16T03:00:06.649Z,5.90
2023-04-16T03:02:33.217Z,5.93
2023-04-16T03:04:59.911Z,5.77
2023-04-16T03:07:26.462Z,5.70
2023-04-16T03:09:52.950Z,5.82
2023-04-16T03:12:19.523Z,6.53
2023-04-16T03:14:46.146Z,6.50
2023-04-16T03:17:12.935Z,6.13
2023-04-16T03:19:39.492Z,6.30
2023-04-16T03:22:06.075Z,6.18
2023-04-16T03:24:32.604Z,6.10
2023-04-16T03:26:59.123Z,6.55
2023-04-16T03:29:25.829Z,7.83
2023-04-16T03:31:52.334Z,7.50
2023-04-16T03:34:18.914Z,6.75
2023-04-16T03:36:45.446Z,5.32
2023-04-16T03:39:12.029Z,5.53
2023-04-16T03:41:38.726Z,5.30
2023-04-16T03:44:05.310Z,5.15
2023-04-16T03:46:31.916Z,4.60
2023-04-16T03:48:58.602Z,5.18
2023-04-16T03:51:25.257Z,4.72
2023-04-16T03:53:51.788Z,4.57
2023-04-16T03:56:18.476Z,5.10
2023-04-16T03:58:44.978Z,4.68
2023-04-16T04:01:11.569Z,4.88
2023-04-16T04:03:38.334Z,5.30
2023-04-16T04:06:08.804Z,5.27
2023-04-16T04:08:35.459Z,5.50
2023-04-16T04:11:02.006Z,5.65
2023-04-16T04:13:28.588Z,5.13
2023-04-16T04:15:55.189Z,4.80
2023-04-16T04:18:21.991Z,5.47
2023-04-16T04:20:48.622Z,5.50
2023-04-16T04:23:15.344Z,5.60
2023-04-16T04:25:41.903Z,5.68
2023-04-16T04:28:08.447Z,5.97
2023-04-16T04:30:35.000Z,5.90
2023-04-16T04:33:01.636Z,5.60
2023-04-16T04:35:28.308Z,6.45
2023-04-16T04:37:54.849Z,6.10
2023-04-16T04:40:21.436Z,6.93
2023-04-16T04:42:47.978Z,8.80
2023-04-16T04:45:14.552Z,8.15
2023-04-16T04:47:41.153Z,6.97
2023-04-16T04:50:08.216Z,5.53
2023-04-16T04:52:34.786Z,5.35
2023-04-16T04:55:01.500Z,5.47
2023-04-16T04:57:27.999Z,5.60
2023-04-16T04:59:54.659Z,5.50
2023-04-16T05:02:21.303Z,5.25
2023-04-16T05:04:47.928Z,5.10
2023-04-16T05:07:14.532Z,5.70
2023-04-16T05:09:41.104Z,5.82
2023-04-16T05:12:07.618Z,5.28
2023-04-16T05:14:34.174Z,5.70
2023-04-16T05:17:00.938Z,5.18
2023-04-16T05:19:27.630Z,4.70
2023-04-16T05:21:54.486Z,5.95
2023-04-16T05:24:21.050Z,5.63
2023-04-16T05:26:47.644Z,5.10
2023-04-16T05:29:14.220Z,6.07
2023-04-16T05:31:41.036Z,5.80
2023-04-16T05:34:07.642Z,5.68
2023-04-16T05:36:34.141Z,5.63
2023-04-16T05:39:00.665Z,4.40
2023-04-16T05:41:27.783Z,4.78
2023-04-16T05:43:54.324Z,4.10
2023-04-16T05:46:21.056Z,4.70
2023-04-16T05:48:47.680Z,4.65
2023-04-16T05:51:14.260Z,5.75
2023-04-16T05:53:40.961Z,3.80
2023-04-16T05:56:08.058Z,5.50
2023-04-16T05:58:34.921Z,6.40
2023-04-16T06:01:01.600Z,5.13
2023-04-16T06:03:28.293Z,4.07
2023-04-16T06:05:55.111Z,4.40
2023-04-16T06:08:21.790Z,3.90
2023-04-16T06:10:49.012Z,3.75
2023-04-16T06:13:15.794Z,4.38
2023-04-16T06:15:42.444Z,3.78
2023-04-16T06:18:09.081Z,3.75
2023-04-16T06:20:35.913Z,4.10
2023-04-16T06:23:02.430Z,4.45
2023-04-16T06:25:29.077Z,3.83
2023-04-16T06:27:55.779Z,3.00
2023-04-16T06:30:22.560Z,3.65
2023-04-16T06:32:49.655Z,3.53
2023-04-16T06:35:16.366Z,3.33
2023-04-16T06:37:42.960Z,3.22
2023-04-16T06:40:10.040Z,3.25
2023-04-16T06:42:36.582Z,3.25
2023-04-16T06:45:03.235Z,3.00
2023-04-16T06:47:29.851Z,3.10
2023-04-16T06:49:56.531Z,3.30
2023-04-16T06:52:23.185Z,2.92
2023-04-16T06:54:49.866Z,3.50
2023-04-16T06:57:16.542Z,3.07
2023-04-16T06:59:43.149Z,3.05
2023-04-16T07:02:10.981Z,3.30
2023-04-16T07:04:37.604Z,3.38
2023-04-16T07:07:04.300Z,3.35
2023-04-16T07:09:30.869Z,3.00
2023-04-16T07:11:57.553Z,3.60
2023-04-16T07:14:24.272Z,3.22
2023-04-16T07:16:50.904Z,2.95
2023-04-16T07:19:17.487Z,3.20
2023-04-16T07:21:44.287Z,2.93
2023-04-16T07:24:11.235Z,3.33
2023-04-16T07:26:37.943Z,5.00
2023-04-16T07:29:04.442Z,3.03
2023-04-16T07:31:31.071Z,2.70
2023-04-16T07:33:58.549Z,3.10
2023-04-16T07:36:25.297Z,2.80
2023-04-16T07:38:53.093Z,2.55
2023-04-16T07:41:19.742Z,2.95
2023-04-16T07:43:46.286Z,2.42
2023-04-16T07:46:15.937Z,2.90
2023-04-16T07:48:43.023Z,2.70
2023-04-16T07:51:09.598Z,2.80
2023-04-16T07:53:36.185Z,2.55
2023-04-16T07:56:02.854Z,3.47
2023-04-16T07:58:29.385Z,2.50
2023-04-16T08:00:56.244Z,2.40
2023-04-16T08:03:23.159Z,3.13
2023-04-16T08:05:50.027Z,2.50
2023-04-16T08:08:16.843Z,2.80
2023-04-16T08:10:43.454Z,2.63
2023-04-16T08:13:09.994Z,3.30
2023-04-16T08:15:36.540Z,3.00
2023-04-16T08:18:03.152Z,2.95
2023-04-16T08:20:29.758Z,3.20
2023-04-16T08:22:56.315Z,3.10
2023-04-16T08:25:22.831Z,3.08
2023-04-16T08:27:49.369Z,3.10
2023-04-16T08:30:16.066Z,3.28
2023-04-16T08:32:43.441Z,2.83
2023-04-16T08:35:10.315Z,2.70
2023-04-16T08:37:36.972Z,2.92
2023-04-16T08:40:03.696Z,2.67
2023-04-16T08:42:37.560Z,2.85
2023-04-16T08:45:08.692Z,3.10
2023-04-16T08:47:36.437Z,3.13
2023-04-16T08:50:06.691Z,2.97
2023-04-16T08:52:39.954Z,2.88
2023-04-16T08:55:16.571Z,2.90
2023-04-16T08:57:57.765Z,2.88
2023-04-16T09:00:24.694Z,2.90
2023-04-16T09:02:51.561Z,2.90
2023-04-16T09:05:18.602Z,2.80
2023-04-16T09:07:46.753Z,2.88
2023-04-16T09:10:15.167Z,3.00
2023-04-16T09:12:42.408Z,2.97
2023-04-16T09:15:13.754Z,2.70
2023-04-16T09:17:40.486Z,2.55
2023-04-16T09:20:08.934Z,2.60
2023-04-16T09:22:36.287Z,2.60
2023-04-16T09:25:02.963Z,2.27
2023-04-16T09:27:30.548Z,2.08
2023-04-16T09:29:57.236Z,2.08
2023-04-16T09:32:28.957Z,1.90
2023-04-16T09:35:00.433Z,1.83
2023-04-16T09:37:31.069Z,2.27
2023-04-16T09:39:59.707Z,2.63
2023-04-16T09:42:31.780Z,1.90
2023-04-16T09:45:01.381Z,1.73
2023-04-16T09:47:45.894Z,1.70
2023-04-16T09:50:18.618Z,1.30
2023-04-16T09:52:48.831Z,1.50
2023-04-16T09:55:15.368Z,1.52
2023-04-16T09:57:41.970Z,1.20
2023-04-16T10:00:10.522Z,1.23
2023-04-16T10:02:40.775Z,1.40
2023-04-16T10:05:07.912Z,1.10
2023-04-16T10:07:36.362Z,0.98
2023-04-16T10:10:04.015Z,1.10
2023-04-16T10:12:31.128Z,0.90
2023-04-16T10:14:57.723Z,0.90
2023-04-16T10:17:25.277Z,1.23
2023-04-16T10:19:53.845Z,1.10
2023-04-16T10:22:20.497Z,0.98
2023-04-16T10:24:47.735Z,1.80
2023-04-16T10:27:14.353Z,1.10
2023-04-16T10:29:41.348Z,1.27
2023-04-16T10:32:08.212Z,1.80
2023-04-16T10:34:35.304Z,1.00
2023-04-16T10:37:01.997Z,0.90
2023-04-16T10:39:28.937Z,1.00
2023-04-16T10:42:15.756Z,0.90
2023-04-16T10:44:45.302Z,1.00
2023-04-16T10:47:13.328Z,2.10
2023-04-16T10:49:41.216Z,1.25
2023-04-16T10:52:12.869Z,0.80
2023-04-16T10:54:40.109Z,0.95
2023-04-16T10:57:17.165Z,0.90
2023-04-16T10:59:44.621Z,0.90
2023-04-16T11:02:17.175Z,0.90
2023-04-16T11:04:46.052Z,1.00
2023-04-16T11:07:12.656Z,0.85
2023-04-16T11:09:56.365Z,1.10
2023-04-16T11:12:24.549Z,0.77
2023-04-16T11:15:02.885Z,0.98
2023-04-16T11:17:33.451Z,1.00
2023-04-16T11:20:00.099Z,1.00
2023-04-16T11:22:27.191Z,0.88
2023-04-16T11:24:55.761Z,0.80
2023-04-16T11:27:23.547Z,0.70
2023-04-16T11:30:07.209Z,1.00
2023-04-16T11:32:35.064Z,0.90
2023-04-16T11:35:02.929Z,0.88
2023-04-16T11:37:36.557Z,0.80
2023-04-16T11:40:05.041Z,0.80
2023-04-16T11:42:31.660Z,0.70
2023-04-16T11:44:59.927Z,0.80
2023-04-16T11:47:27.540Z,0.80
2023-04-16T11:49:54.181Z,0.80
2023-04-16T11:52:32.215Z,0.70
2023-04-16T11:54:59.559Z,0.70
2023-04-16T11:57:30.708Z,1.75
2023-04-16T12:00:02.186Z,1.08
2023-04-16T12:02:44.707Z,1.00
2023-04-16T12:05:33.807Z,0.90
2023-04-16T12:08:09.363Z,1.20
2023-04-16T12:10:38.147Z,0.90
2023-04-16T12:13:12.255Z,0.80
2023-04-16T12:15:52.735Z,0.77
2023-04-16T12:18:21.674Z,1.20
2023-04-16T12:20:48.847Z,0.50
2023-04-16T12:23:30.153Z,0.90
2023-04-16T12:25:57.374Z,0.70
2023-04-16T12:28:34.144Z,1.00
2023-04-16T12:31:02.120Z,1.50
2023-04-16T12:33:29.110Z,1.00
2023-04-16T12:35:55.799Z,0.60
2023-04-16T12:38:24.444Z,0.75
2023-04-16T12:40:51.900Z,0.60
2023-04-16T12:43:18.632Z,0.60
2023-04-16T12:45:45.181Z,0.80
2023-04-16T12:48:11.761Z,0.60
2023-04-16T12:50:38.371Z,0.95
2023-04-16T12:53:05.058Z,0.75
2023-04-16T12:55:31.631Z,0.70
2023-04-16T12:57:58.187Z,0.90
2023-04-16T13:00:24.884Z,0.75
2023-04-16T13:02:51.574Z,0.60
2023-04-16T13:05:18.317Z,0.90
2023-04-16T13:07:45.228Z,0.90
2023-04-16T13:10:12.196Z,0.70
2023-04-16T13:12:38.795Z,0.90
2023-04-16T13:15:05.638Z,0.80
2023-04-16T13:17:32.406Z,0.77
2023-04-16T13:19:59.040Z,0.63
2023-04-16T13:22:25.617Z,0.70
2023-04-16T13:24:52.154Z,0.60
2023-04-16T13:27:18.688Z,0.77
2023-04-16T13:29:46.142Z,0.80
2023-04-16T13:32:12.786Z,0.90
2023-04-16T13:34:39.678Z,0.90
2023-04-16T13:37:06.347Z,0.90
2023-04-16T13:39:33.711Z,0.90
2023-04-16T13:42:00.495Z,1.10
2023-04-16T13:44:27.234Z,0.98
2023-04-16T13:46:53.905Z,1.10
2023-04-16T13:49:20.474Z,1.15
2023-04-16T13:51:47.103Z,0.82
2023-04-16T13:54:13.775Z,1.52
2023-04-16T13:56:40.482Z,0.90
2023-04-16T13:59:07.704Z,1.20
2023-04-16T14:01:34.644Z,0.90
2023-04-16T14:04:01.985Z,0.82
2023-04-16T14:06:28.582Z,1.10
2023-04-16T14:08:55.130Z,1.20
2023-04-16T14:11:21.868Z,1.20
2023-04-16T14:13:48.483Z,1.25
2023-04-16T14:16:15.252Z,1.25
2023-04-16T14:18:41.797Z,1.13
2023-04-16T14:21:08.863Z,1.10
2023-04-16T14:23:35.533Z,1.10
2023-04-16T14:26:02.081Z,1.30
2023-04-16T14:28:28.675Z,1.10
2023-04-16T14:30:55.211Z,1.10
2023-04-16T14:33:21.745Z,1.00
2023-04-16T14:35:48.288Z,1.30
2023-04-16T14:38:14.893Z,1.50
2023-04-16T14:40:41.405Z,1.52
2023-04-16T14:43:07.917Z,1.58
2023-04-16T14:45:34.510Z,1.40
2023-04-16T14:48:01.081Z,1.20
2023-04-16T14:50:27.816Z,1.40
2023-04-16T14:52:54.459Z,1.30
2023-04-16T14:55:21.182Z,1.33
2023-04-16T14:57:47.793Z,1.20
2023-04-16T15:00:14.750Z,1.20
2023-04-16T15:02:41.559Z,1.50
2023-04-16T15:05:08.792Z,1.30
2023-04-16T15:07:35.372Z,1.38
2023-04-16T15:10:02.309Z,1.10
2023-04-16T15:12:28.969Z,1.50
2023-04-16T15:14:55.626Z,1.30
2023-04-16T15:17:22.559Z,1.20
2023-04-16T15:19:49.252Z,1.55
2023-04-16T15:22:15.864Z,1.30
2023-04-16T15:24:42.470Z,1.40
2023-04-16T15:27:11.628Z,1.20
2023-04-16T15:29:38.649Z,1.20
2023-04-16T15:32:05.367Z,1.35
2023-04-16T15:34:31.926Z,1.50
2023-04-16T15:36:58.562Z,1.20
2023-04-16T15:39:25.169Z,1.00
2023-04-16T15:44:21.358Z,1.08
2023-04-16T15:46:47.931Z,1.88
2023-04-16T15:49:14.788Z,1.10
2023-04-16T15:51:41.368Z,1.17
2023-04-16T15:54:07.968Z,1.10
2023-04-16T15:56:34.671Z,1.35
2023-04-16T15:59:01.297Z,1.38
2023-04-16T16:01:27.892Z,1.30
2023-04-16T16:03:54.680Z,1.10
2023-04-16T16:06:21.432Z,1.42
2023-04-16T16:08:48.131Z,1.10
2023-04-16T16:11:14.859Z,1.42
2023-04-16T16:13:41.532Z,1.30
2023-04-16T16:16:08.191Z,1.40
2023-04-16T16:18:34.822Z,1.30
2023-04-16T16:21:01.496Z,1.20
2023-04-16T16:23:28.109Z,1.20
2023-04-16T16:25:54.684Z,1.40
2023-04-16T16:28:21.307Z,1.75
2023-04-16T16:30:47.817Z,1.13
2023-04-16T16:33:15.294Z,1.20
2023-04-16T16:35:42.162Z,1.00
2023-04-16T16:38:08.870Z,1.67
2023-04-16T16:40:35.439Z,1.42
2023-04-16T16:43:02.063Z,1.30
2023-04-16T16:45:28.661Z,1.50
2023-04-16T16:47:55.279Z,1.05
2023-04-16T16:50:22.018Z,1.10
2023-04-16T16:52:48.669Z,1.30
2023-04-16T16:55:15.426Z,1.23
2023-04-16T16:57:42.983Z,1.30
2023-04-16T17:00:10.448Z,1.25
2023-04-16T17:02:37.818Z,1.10
2023-04-16T17:05:05.514Z,1.20
2023-04-16T17:07:32.163Z,1.15
2023-04-16T17:10:01.614Z,1.27
2023-04-16T17:12:29.622Z,1.33
2023-04-16T17:14:56.260Z,1.60
2023-04-16T17:17:22.898Z,1.35
2023-04-16T17:19:49.582Z,1.70
2023-04-16T17:22:16.205Z,1.63
2023-04-16T17:24:42.854Z,1.80
2023-04-16T17:27:09.399Z,1.27
2023-04-16T17:29:35.972Z,1.40
2023-04-16T17:32:02.667Z,1.63
2023-04-16T17:34:29.369Z,1.52
2023-04-16T17:36:55.866Z,1.40
2023-04-16T17:39:22.420Z,1.50
2023-04-16T17:41:49.017Z,1.50
2023-04-16T17:44:15.966Z,1.60
2023-04-16T17:46:42.912Z,1.60
2023-04-16T17:49:09.504Z,1.80
2023-04-16T17:51:36.122Z,1.60
2023-04-16T17:54:02.641Z,1.83
2023-04-16T17:56:29.233Z,1.60
2023-04-16T17:58:55.866Z,1.65
2023-04-16T18:01:22.420Z,4.95
2023-04-16T18:03:49.139Z,1.30
2023-04-16T18:06:15.870Z,1.40
2023-04-16T18:08:42.473Z,2.53
2023-04-16T18:11:09.235Z,1.50
2023-04-16T18:13:35.841Z,1.67
2023-04-16T18:16:02.811Z,1.70
2023-04-16T18:18:29.528Z,1.60
2023-04-16T18:20:56.109Z,1.45
2023-04-16T18:23:22.618Z,1.60
2023-04-16T18:25:49.238Z,1.60
2023-04-16T18:28:15.797Z,2.23
2023-04-16T18:30:42.824Z,1.90
2023-04-16T18:33:26.369Z,1.63
2023-04-16T18:35:56.110Z,2.30
2023-04-16T18:38:22.720Z,2.63
2023-04-16T18:40:49.309Z,2.27
2023-04-16T18:43:19.021Z,2.15
2023-04-16T18:45:45.690Z,1.80
2023-04-16T18:48:12.228Z,1.95
2023-04-16T18:50:38.809Z,2.00
2023-04-16T18:53:05.404Z,2.20
2023-04-16T18:55:32.048Z,1.75
2023-04-16T18:57:58.584Z,1.90
2023-04-16T19:00:25.134Z,2.20
2023-04-16T19:02:51.758Z,1.98
2023-04-16T19:05:18.508Z,2.00
2023-04-16T19:07:45.176Z,1.88
2023-04-16T19:10:11.773Z,2.00
2023-04-16T19:12:38.314Z,1.92
2023-04-16T19:15:07.552Z,2.08
2023-04-16T19:17:34.146Z,2.00
2023-04-16T19:20:00.723Z,2.00
2023-04-16T19:22:27.376Z,2.20
2023-04-16T19:24:53.984Z,2.28
2023-04-16T19:27:20.654Z,1.98
2023-04-16T19:29:47.182Z,1.93
2023-04-16T19:32:14.279Z,1.98
2023-04-16T19:34:41.165Z,2.03
2023-04-16T19:37:07.717Z,1.98
2023-04-16T19:39:34.243Z,2.88
2023-04-16T19:42:00.742Z,2.57
2023-04-16T19:44:27.344Z,2.00
2023-04-16T19:46:53.924Z,2.05
2023-04-16T19:49:20.421Z,1.92
2023-04-16T19:51:46.996Z,2.20
2023-04-16T19:54:15.852Z,2.73
2023-04-16T19:56:42.553Z,2.90
2023-04-16T19:59:09.594Z,2.28
2023-04-16T20:01:36.404Z,2.50
2023-04-16T20:04:03.072Z,2.30
2023-04-16T20:06:29.766Z,2.60
2023-04-16T20:08:56.591Z,2.67
2023-04-16T20:11:23.116Z,2.55
2023-04-16T20:13:49.685Z,2.88
2023-04-16T20:16:16.265Z,2.55
2023-04-16T20:18:42.948Z,3.40
2023-04-16T20:21:09.997Z,3.20
2023-04-16T20:23:36.601Z,2.10
2023-04-16T20:26:03.174Z,2.20
2023-04-16T20:28:29.824Z,1.90
2023-04-16T20:30:56.378Z,1.77
2023-04-16T20:33:22.924Z,1.70
2023-04-16T20:35:49.461Z,1.92
2023-04-16T20:38:16.140Z,3.33
2023-04-16T20:40:42.672Z,2.38
2023-04-16T20:43:09.185Z,2.23
2023-04-16T20:45:35.898Z,1.83
2023-04-16T20:48:02.523Z,2.05
2023-04-16T20:50:29.042Z,1.80
2023-04-16T20:52:55.974Z,1.75
2023-04-16T20:55:22.544Z,1.57
2023-04-16T20:57:49.173Z,2.08
2023-04-16T21:00:16.058Z,1.92
2023-04-16T21:02:43.538Z,1.73
2023-04-16T21:05:10.807Z,1.40
2023-04-16T21:07:37.399Z,1.57
2023-04-16T21:10:04.171Z,1.40
2023-04-16T21:12:30.845Z,1.73
2023-04-16T21:14:57.436Z,1.70
2023-04-16T21:17:24.011Z,1.70
2023-04-16T21:19:50.642Z,1.40
2023-04-16T21:22:17.285Z,1.83
2023-04-16T21:24:43.824Z,1.42
2023-04-16T21:27:10.383Z,1.60
2023-04-16T21:29:36.982Z,1.70
2023-04-16T21:32:03.578Z,1.73
2023-04-16T21:34:30.171Z,1.70
2023-04-16T21:36:56.668Z,1.98
2023-04-16T21:39:23.216Z,1.83
2023-04-16T21:41:49.856Z,2.30
2023-04-16T21:44:16.432Z,2.23
2023-04-16T21:46:43.000Z,2.35
2023-04-16T21:49:10.020Z,2.13
2023-04-16T21:51:38.207Z,2.38
2023-04-16T21:54:05.884Z,2.17
2023-04-16T21:56:32.571Z,2.40
2023-04-16T21:58:59.171Z,2.22
2023-04-16T22:01:25.821Z,2.15
2023-04-16T22:03:52.710Z,2.55
2023-04-16T22:06:19.443Z,2.20
2023-04-16T22:08:46.284Z,2.03
2023-04-16T22:11:12.843Z,2.40
2023-04-16T22:13:39.500Z,2.08
2023-04-16T22:16:07.495Z,2.28
2023-04-16T22:18:34.876Z,1.88
2023-04-16T22:21:01.418Z,2.03
2023-04-16T22:23:28.083Z,2.22
2023-04-16T22:25:55.641Z,2.60
2023-04-16T22:28:22.702Z,2.20
2023-04-16T22:30:49.450Z,2.42
2023-04-16T22:33:16.002Z,2.50
2023-04-16T22:35:42.537Z,2.55
2023-04-16T22:38:09.182Z,2.13
2023-04-16T22:40:35.850Z,2.30
2023-04-16T22:43:02.455Z,2.20
2023-04-16T22:45:29.076Z,2.23
2023-04-16T22:47:55.786Z,2.00
2023-04-16T22:50:22.387Z,2.83
2023-04-16T22:52:48.885Z,2.45
2023-04-16T22:55:15.441Z,2.15
2023-04-16T22:57:42.015Z,2.40
2023-04-16T23:00:09.015Z,2.10
2023-04-16T23:02:35.727Z,2.42
2023-04-16T23:05:02.305Z,2.50
2023-04-16T23:07:28.858Z,2.15
2023-04-16T23:09:55.504Z,2.43
2023-04-16T23:12:22.037Z,2.40
2023-04-16T23:14:48.603Z,2.30
2023-04-16T23:17:15.172Z,2.38
2023-04-16T23:19:41.739Z,2.53
2023-04-16T23:22:08.314Z,2.70
2023-04-16T23:24:34.883Z,2.55
2023-04-16T23:27:01.539Z,2.40
2023-04-16T23:29:28.137Z,2.33
2023-04-16T23:31:54.659Z,2.60
2023-04-16T23:34:21.279Z,2.30
2023-04-16T23:36:47.911Z,2.53
2023-04-16T23:39:14.499Z,2.38
2023-04-16T23:41:41.122Z,2.60
2023-04-16T23:44:07.763Z,2.35
2023-04-16T23:46:34.309Z,2.47
2023-04-16T23:49:00.955Z,2.20
2023-04-16T23:51:27.474Z,2.30
2023-04-16T23:53:54.093Z,2.40
2023-04-16T23:56:20.710Z,2.47
2023-04-16T23:58:47.295Z,2.30
